createdAt,value
2018-03-03T00:00:05.792Z,-7.6
2018-03-03T00:00:26.052Z,-7.6
2018-03-03T00:00:46.358Z,-7.5
2018-03-03T00:01:06.649Z,-7.6
2018-03-03T00:01:26.946Z,-7.6
2018-03-03T00:01:47.277Z,-7.6
2018-03-03T00:02:07.555Z,-7.7
2018-03-03T00:02:27.941Z,-7.7
2018-03-03T00:02:48.245Z,-7.6
2018-03-03T00:03:08.573Z,-7.7
2018-03-03T00:03:28.905Z,-7.6
2018-03-03T00:03:49.226Z,-7.7
2018-03-03T00:04:09.531Z,-7.6
2018-03-03T00:04:29.878Z,-7.6
2018-03-03T00:04:50.143Z,-7.6
2018-03-03T00:05:10.528Z,-7.6
2018-03-03T00:05:30.904Z,-7.6
2018-03-03T00:05:51.295Z,-7.5
2018-03-03T00:06:11.638Z,-7.6
2018-03-03T00:06:32.061Z,-7.6
2018-03-03T00:06:52.398Z,-7.8
2018-03-03T00:07:12.824Z,-7.6
2018-03-03T00:07:33.174Z,-7.7
2018-03-03T00:07:53.508Z,-7.8
2018-03-03T00:08:13.783Z,-7.7
2018-03-03T00:08:34.095Z,-7.7
2018-03-03T00:08:54.502Z,-7.7
2018-03-03T00:09:14.870Z,-7.7
2018-03-03T00:09:35.257Z,-7.6
2018-03-03T00:09:55.681Z,-7.7
2018-03-03T00:10:16.023Z,-7.7
2018-03-03T00:10:36.355Z,-7.8
2018-03-03T00:10:56.722Z,-7.7
2018-03-03T00:11:17.052Z,-7.7
2018-03-03T00:11:37.443Z,-7.7
2018-03-03T00:11:57.797Z,-7.7
2018-03-03T00:12:18.093Z,-7.7
2018-03-03T00:12:38.408Z,-7.7
2018-03-03T00:12:58.800Z,-7.8
2018-03-03T00:13:19.130Z,-7.8
2018-03-03T00:13:59.047Z,-7.7
2018-03-03T00:14:19.378Z,-7.8
2018-03-03T00:14:39.684Z,-7.8
2018-03-03T00:15:00.044Z,-7.7
2018-03-03T00:15:20.484Z,-7.8
2018-03-03T00:15:40.882Z,-7.7
2018-03-03T00:16:01.167Z,-7.6
2018-03-03T00:16:21.530Z,-7.7
2018-03-03T00:16:41.877Z,-7.8
2018-03-03T00:17:02.126Z,-7.8
2018-03-03T00:17:22.508Z,-7.8
2018-03-03T00:17:42.894Z,-7.8
2018-03-03T00:18:03.290Z,-7.7
2018-03-03T00:18:23.722Z,-7.8
2018-03-03T00:18:44.031Z,-7.8
2018-03-03T00:19:04.398Z,-7.7
2018-03-03T00:19:24.736Z,-7.8
2018-03-03T00:19:45.222Z,-7.7
2018-03-03T00:20:05.676Z,-7.8
2018-03-03T00:20:26.072Z,-7.8
2018-03-03T00:20:46.472Z,-7.7
2018-03-03T00:21:06.839Z,-7.7
2018-03-03T00:21:27.303Z,-7.7
2018-03-03T00:21:47.601Z,-7.7
2018-03-03T00:22:07.911Z,-7.7
2018-03-03T00:22:28.223Z,-7.7
2018-03-03T00:22:48.648Z,-7.8
2018-03-03T00:23:09.009Z,-7.7
2018-03-03T00:23:29.294Z,-7.7
2018-03-03T00:23:49.622Z,-7.7
2018-03-03T00:24:09.949Z,-7.7
2018-03-03T00:24:30.337Z,-7.7
2018-03-03T00:24:50.909Z,-7.7
2018-03-03T00:25:11.189Z,-7.8
2018-03-03T00:25:31.581Z,-7.7
2018-03-03T00:25:51.820Z,-7.7
2018-03-03T00:26:12.208Z,-7.7
2018-03-03T00:26:32.554Z,-7.7
2018-03-03T00:26:52.874Z,-7.7
2018-03-03T00:27:13.210Z,-7.7
2018-03-03T00:27:33.545Z,-7.7
2018-03-03T00:27:53.919Z,-7.7
2018-03-03T00:28:14.267Z,-7.7
2018-03-03T00:28:34.520Z,-7.7
2018-03-03T00:28:54.838Z,-7.7
2018-03-03T00:29:15.107Z,-7.6
2018-03-03T00:29:35.463Z,-7.7
2018-03-03T00:29:55.783Z,-7.7
2018-03-03T00:30:16.066Z,-7.7
2018-03-03T00:30:36.410Z,-7.7
2018-03-03T00:30:56.781Z,-7.7
2018-03-03T00:31:17.136Z,-7.8
2018-03-03T00:31:37.438Z,-7.7
2018-03-03T00:31:57.816Z,-7.8
2018-03-03T00:32:18.161Z,-7.8
2018-03-03T00:32:38.646Z,-7.8
2018-03-03T00:32:59.034Z,-7.7
2018-03-03T00:33:19.350Z,-7.6
2018-03-03T00:33:39.682Z,-7.7
2018-03-03T00:34:00.052Z,-7.8
2018-03-03T00:34:20.371Z,-7.7
2018-03-03T00:34:40.592Z,-7.7
2018-03-03T00:35:00.884Z,-7.7
2018-03-03T00:35:21.221Z,-7.7
2018-03-03T00:35:41.569Z,-7.8
2018-03-03T00:36:01.943Z,-7.7
2018-03-03T00:36:22.404Z,-7.8
2018-03-03T00:36:42.788Z,-7.8
2018-03-03T00:37:03.209Z,-7.8
2018-03-03T00:37:23.578Z,-7.8
2018-03-03T00:37:43.923Z,-7.8
2018-03-03T00:38:04.251Z,-7.9
2018-03-03T00:38:24.566Z,-7.7
2018-03-03T00:38:44.917Z,-7.7
2018-03-03T00:39:05.247Z,-7.8
2018-03-03T00:39:25.591Z,-7.8
2018-03-03T00:39:45.935Z,-7.8
2018-03-03T00:40:06.314Z,-7.7
2018-03-03T00:40:26.656Z,-7.9
2018-03-03T00:40:46.963Z,-7.8
2018-03-03T00:41:07.443Z,-7.9
2018-03-03T00:41:27.748Z,-7.9
2018-03-03T00:41:48.106Z,-7.8
2018-03-03T00:42:08.465Z,-7.8
2018-03-03T00:42:28.912Z,-7.7
2018-03-03T00:42:49.244Z,-7.9
2018-03-03T00:43:09.561Z,-7.9
2018-03-03T00:43:29.867Z,-7.9
2018-03-03T00:43:50.227Z,-7.9
2018-03-03T00:44:10.665Z,-7.9
2018-03-03T00:44:30.996Z,-8
2018-03-03T00:44:51.391Z,-8
2018-03-03T00:45:11.813Z,-8
2018-03-03T00:45:32.149Z,-8
2018-03-03T00:45:52.503Z,-8
2018-03-03T00:46:12.844Z,-8.1
2018-03-03T00:46:33.236Z,-8.1
2018-03-03T00:46:53.626Z,-8.1
2018-03-03T00:47:13.946Z,-8.2
2018-03-03T00:47:34.210Z,-8
2018-03-03T00:47:54.509Z,-8.1
2018-03-03T00:48:14.855Z,-8.1
2018-03-03T00:48:35.221Z,-8.1
2018-03-03T00:48:55.510Z,-8.3
2018-03-03T00:49:15.848Z,-8.2
2018-03-03T00:49:36.239Z,-8.3
2018-03-03T00:49:56.597Z,-8.2
2018-03-03T00:50:17.017Z,-8.3
2018-03-03T00:50:37.407Z,-8.3
2018-03-03T00:50:57.838Z,-8.3
2018-03-03T00:51:18.241Z,-8.3
2018-03-03T00:51:38.546Z,-8.3
2018-03-03T00:51:58.888Z,-8.5
2018-03-03T00:52:19.160Z,-8.3
2018-03-03T00:52:39.511Z,-8.3
2018-03-03T00:52:59.888Z,-8.3
2018-03-03T00:53:20.309Z,-8.3
2018-03-03T00:53:40.658Z,-8.3
2018-03-03T00:54:00.977Z,-8.4
2018-03-03T00:54:21.401Z,-8.4
2018-03-03T00:54:41.709Z,-8.3
2018-03-03T00:55:02.046Z,-8.4
2018-03-03T00:55:22.354Z,-8.3
2018-03-03T00:55:42.638Z,-8.5
2018-03-03T00:56:02.997Z,-8.4
2018-03-03T00:56:23.399Z,-8.3
2018-03-03T00:56:43.741Z,-8.3
2018-03-03T00:57:04.098Z,-8.3
2018-03-03T00:57:24.420Z,-8.3
2018-03-03T00:57:44.751Z,-8.3
2018-03-03T00:58:05.108Z,-8.3
2018-03-03T00:58:25.410Z,-8.3
2018-03-03T00:58:45.777Z,-8.2
2018-03-03T00:59:06.096Z,-8.2
2018-03-03T00:59:26.464Z,-8.3
2018-03-03T00:59:46.911Z,-8.2
2018-03-03T01:00:07.195Z,-8.3
2018-03-03T01:00:27.640Z,-8.3
2018-03-03T01:00:47.921Z,-8.3
2018-03-03T01:01:08.273Z,-8.3
2018-03-03T01:01:28.582Z,-8.3
2018-03-03T01:01:48.922Z,-8.2
2018-03-03T01:02:09.282Z,-8.3
2018-03-03T01:02:29.547Z,-8.3
2018-03-03T01:02:49.880Z,-8.2
2018-03-03T01:03:10.185Z,-8.3
2018-03-03T01:03:30.498Z,-8.3
2018-03-03T01:03:50.884Z,-8.2
2018-03-03T01:04:11.279Z,-8.3
2018-03-03T01:04:31.614Z,-8.3
2018-03-03T01:04:51.916Z,-8.3
2018-03-03T01:05:12.246Z,-8.3
2018-03-03T01:05:32.529Z,-8.3
2018-03-03T01:05:52.955Z,-8.3
2018-03-03T01:06:13.333Z,-8.3
2018-03-03T01:06:33.589Z,-8.3
2018-03-03T01:06:53.971Z,-8.3
2018-03-03T01:07:14.243Z,-8.2
2018-03-03T01:07:34.671Z,-8.3
2018-03-03T01:07:54.934Z,-8.2
2018-03-03T01:08:15.236Z,-8.2
2018-03-03T01:08:35.611Z,-8.2
2018-03-03T01:08:56.007Z,-8.2
2018-03-03T01:09:16.324Z,-8.3
2018-03-03T01:09:36.967Z,-8.2
2018-03-03T01:09:57.358Z,-8.3
2018-03-03T01:10:17.619Z,-8.3
2018-03-03T01:10:37.939Z,-8.3
2018-03-03T01:10:58.323Z,-8.3
2018-03-03T01:11:18.672Z,-8.3
2018-03-03T01:11:39.034Z,-8.3
2018-03-03T01:11:59.349Z,-8.3
2018-03-03T01:12:19.641Z,-8.4
2018-03-03T01:12:39.893Z,-8.3
2018-03-03T01:13:00.252Z,-8.3
2018-03-03T01:13:20.642Z,-8.4
2018-03-03T01:13:41.002Z,-8.3
2018-03-03T01:14:01.312Z,-8.3
2018-03-03T01:14:21.694Z,-8.4
2018-03-03T01:14:42.021Z,-8.4
2018-03-03T01:15:02.505Z,-8.4
2018-03-03T01:15:22.816Z,-8.5
2018-03-03T01:15:43.207Z,-8.4
2018-03-03T01:16:03.528Z,-8.4
2018-03-03T01:16:23.875Z,-8.4
2018-03-03T01:16:44.365Z,-8.4
2018-03-03T01:17:04.828Z,-8.3
2018-03-03T01:17:25.269Z,-8.4
2018-03-03T01:17:45.677Z,-8.4
2018-03-03T01:18:06.098Z,-8.3
2018-03-03T01:18:26.444Z,-8.4
2018-03-03T01:18:46.788Z,-8.5
2018-03-03T01:19:07.403Z,-8.4
2018-03-03T01:19:27.736Z,-8.4
2018-03-03T01:19:48.131Z,-8.4
2018-03-03T01:20:08.595Z,-8.4
2018-03-03T01:20:29.033Z,-8.4
2018-03-03T01:20:49.371Z,-8.5
2018-03-03T01:21:09.750Z,-8.5
2018-03-03T01:21:30.066Z,-8.4
2018-03-03T01:21:50.412Z,-8.4
2018-03-03T01:22:10.752Z,-8.5
2018-03-03T01:22:31.025Z,-8.5
2018-03-03T01:22:51.439Z,-8.5
2018-03-03T01:23:11.845Z,-8.5
2018-03-03T01:23:32.177Z,-8.5
2018-03-03T01:23:52.513Z,-8.5
2018-03-03T01:24:12.868Z,-8.4
2018-03-03T01:24:33.158Z,-8.5
2018-03-03T01:24:53.644Z,-8.5
2018-03-03T01:25:14.035Z,-8.5
2018-03-03T01:25:34.433Z,-8.6
2018-03-03T01:25:54.774Z,-8.5
2018-03-03T01:26:15.231Z,-8.6
2018-03-03T01:26:35.614Z,-8.6
2018-03-03T01:26:56.018Z,-8.6
2018-03-03T01:27:16.384Z,-8.6
2018-03-03T01:27:36.736Z,-8.6
2018-03-03T01:27:57.138Z,-8.6
2018-03-03T01:28:17.525Z,-8.5
2018-03-03T01:28:37.862Z,-8.5
2018-03-03T01:28:58.170Z,-8.6
2018-03-03T01:29:18.647Z,-8.7
2018-03-03T01:29:39.303Z,-8.7
2018-03-03T01:29:59.739Z,-8.7
2018-03-03T01:30:20.023Z,-8.6
2018-03-03T01:30:40.555Z,-8.6
2018-03-03T01:31:00.952Z,-8.7
2018-03-03T01:31:21.179Z,-8.7
2018-03-03T01:31:41.523Z,-8.7
2018-03-03T01:32:01.843Z,-8.6
2018-03-03T01:32:22.226Z,-8.6
2018-03-03T01:32:42.558Z,-8.7
2018-03-03T01:33:02.906Z,-8.8
2018-03-03T01:33:23.276Z,-8.8
2018-03-03T01:33:44.405Z,-8.7
2018-03-03T01:34:04.711Z,-8.6
2018-03-03T01:34:25.056Z,-8.8
2018-03-03T01:34:45.396Z,-8.7
2018-03-03T01:35:05.715Z,-8.7
2018-03-03T01:35:26.092Z,-8.7
2018-03-03T01:35:46.448Z,-8.8
2018-03-03T01:36:06.842Z,-8.7
2018-03-03T01:36:27.299Z,-8.7
2018-03-03T01:36:47.858Z,-8.6
2018-03-03T01:37:08.191Z,-8.8
2018-03-03T01:37:28.462Z,-8.7
2018-03-03T01:37:48.832Z,-8.6
2018-03-03T01:38:09.147Z,-8.7
2018-03-03T01:38:29.463Z,-8.6
2018-03-03T01:38:49.828Z,-8.7
2018-03-03T01:39:10.204Z,-8.7
2018-03-03T01:39:30.533Z,-8.6
2018-03-03T01:39:50.865Z,-8.8
2018-03-03T01:40:11.146Z,-8.7
2018-03-03T01:40:31.523Z,-8.6
2018-03-03T01:40:51.945Z,-8.7
2018-03-03T01:41:12.344Z,-8.8
2018-03-03T01:41:32.672Z,-8.8
2018-03-03T01:41:52.936Z,-8.7
2018-03-03T01:42:13.341Z,-8.8
2018-03-03T01:42:33.757Z,-8.7
2018-03-03T01:42:54.119Z,-8.6
2018-03-03T01:43:14.764Z,-8.8
2018-03-03T01:43:35.158Z,-8.8
2018-03-03T01:43:55.545Z,-8.7
2018-03-03T01:44:15.868Z,-8.8
2018-03-03T01:44:36.238Z,-8.7
2018-03-03T01:44:56.491Z,-8.7
2018-03-03T01:45:16.913Z,-8.7
2018-03-03T01:45:37.289Z,-8.8
2018-03-03T01:45:57.556Z,-8.7
2018-03-03T01:46:17.932Z,-8.8
2018-03-03T01:46:38.250Z,-8.7
2018-03-03T01:46:58.534Z,-8.8
2018-03-03T01:47:18.923Z,-8.8
2018-03-03T01:47:39.383Z,-8.7
2018-03-03T01:47:59.599Z,-8.7
2018-03-03T01:48:19.948Z,-8.8
2018-03-03T01:48:40.364Z,-8.8
2018-03-03T01:49:00.690Z,-8.8
2018-03-03T01:49:21.052Z,-8.8
2018-03-03T01:49:41.415Z,-8.9
2018-03-03T01:50:01.986Z,-8.8
2018-03-03T01:50:22.253Z,-8.8
2018-03-03T01:50:42.596Z,-8.8
2018-03-03T01:51:02.957Z,-8.8
2018-03-03T01:51:23.267Z,-8.8
2018-03-03T01:51:43.534Z,-8.8
2018-03-03T01:52:03.951Z,-8.8
2018-03-03T01:52:24.276Z,-8.9
2018-03-03T01:52:44.569Z,-8.8
2018-03-03T01:53:04.898Z,-8.8
2018-03-03T01:53:25.204Z,-8.8
2018-03-03T01:53:45.545Z,-8.7
2018-03-03T01:54:05.896Z,-8.7
2018-03-03T01:54:26.229Z,-8.8
2018-03-03T01:54:46.575Z,-8.8
2018-03-03T01:55:06.930Z,-8.9
2018-03-03T01:55:27.303Z,-8.8
2018-03-03T01:55:47.632Z,-8.8
2018-03-03T01:56:08.105Z,-8.9
2018-03-03T01:56:28.456Z,-8.8
2018-03-03T01:56:48.832Z,-8.8
2018-03-03T01:57:09.148Z,-8.8
2018-03-03T01:57:29.436Z,-8.9
2018-03-03T01:57:49.722Z,-8.8
2018-03-03T01:58:10.157Z,-8.9
2018-03-03T01:58:30.504Z,-8.7
2018-03-03T01:58:50.802Z,-8.8
2018-03-03T01:59:11.155Z,-8.8
2018-03-03T01:59:31.581Z,-8.8
2018-03-03T01:59:51.862Z,-8.8
2018-03-03T02:00:12.217Z,-8.9
2018-03-03T02:00:32.782Z,-8.9
2018-03-03T02:00:53.225Z,-8.8
2018-03-03T02:01:13.626Z,-8.8
2018-03-03T02:01:34.034Z,-8.8
2018-03-03T02:01:54.572Z,-8.8
2018-03-03T02:02:14.685Z,-8.8
2018-03-03T02:02:35.115Z,-8.8
2018-03-03T02:02:55.714Z,-8.9
2018-03-03T02:03:16.340Z,-8.8
2018-03-03T02:03:36.820Z,-8.9
2018-03-03T02:03:57.356Z,-8.8
2018-03-03T02:04:17.734Z,-8.9
2018-03-03T02:04:38.354Z,-8.9
2018-03-03T02:04:58.717Z,-8.8
2018-03-03T02:05:19.154Z,-8.9
2018-03-03T02:05:39.685Z,-8.9
2018-03-03T02:06:00.359Z,-8.9
2018-03-03T02:06:21.071Z,-8.9
2018-03-03T02:06:41.754Z,-9
2018-03-03T02:07:02.357Z,-8.9
2018-03-03T02:07:23.032Z,-8.9
2018-03-03T02:07:43.852Z,-8.9
2018-03-03T02:08:04.212Z,-8.9
2018-03-03T02:08:24.754Z,-8.9
2018-03-03T02:08:45.473Z,-8.9
2018-03-03T02:09:06.088Z,-8.9
2018-03-03T02:09:26.757Z,-9
2018-03-03T02:09:47.279Z,-8.9
2018-03-03T02:10:07.787Z,-8.9
2018-03-03T02:10:28.281Z,-9
2018-03-03T02:10:48.792Z,-9
2018-03-03T02:11:09.248Z,-9
2018-03-03T02:11:29.666Z,-9.1
2018-03-03T02:11:51.006Z,-9
2018-03-03T02:12:11.356Z,-9
2018-03-03T02:12:31.810Z,-9.1
2018-03-03T02:12:52.097Z,-9.1
2018-03-03T02:13:12.517Z,-9
2018-03-03T02:13:33.068Z,-9
2018-03-03T02:13:53.467Z,-9
2018-03-03T02:14:13.918Z,-9.1
2018-03-03T02:14:34.470Z,-9.1
2018-03-03T02:14:54.808Z,-9.1
2018-03-03T02:15:15.534Z,-9.2
2018-03-03T02:15:36.173Z,-9
2018-03-03T02:15:56.848Z,-9.1
2018-03-03T02:16:17.338Z,-9.1
2018-03-03T02:16:37.749Z,-9.1
2018-03-03T02:16:58.133Z,-9.2
2018-03-03T02:17:18.478Z,-9.1
2018-03-03T02:17:38.748Z,-9.1
2018-03-03T02:17:59.056Z,-9.1
2018-03-03T02:18:19.429Z,-9.2
2018-03-03T02:18:39.862Z,-9.2
2018-03-03T02:19:00.185Z,-9.1
2018-03-03T02:19:20.523Z,-9.2
2018-03-03T02:19:40.817Z,-9.1
2018-03-03T02:20:01.225Z,-9.2
2018-03-03T02:20:21.579Z,-9.1
2018-03-03T02:20:41.957Z,-9.1
2018-03-03T02:21:02.358Z,-9.2
2018-03-03T02:21:22.736Z,-9.1
2018-03-03T02:21:43.023Z,-9.2
2018-03-03T02:22:03.372Z,-9.1
2018-03-03T02:22:23.668Z,-9.2
2018-03-03T02:22:43.954Z,-9.3
2018-03-03T02:23:04.357Z,-9.2
2018-03-03T02:23:24.868Z,-9.2
2018-03-03T02:23:45.309Z,-9.2
2018-03-03T02:24:05.717Z,-9.2
2018-03-03T02:24:26.154Z,-9.2
2018-03-03T02:24:46.743Z,-9.2
2018-03-03T02:25:07.130Z,-9.1
2018-03-03T02:25:27.649Z,-9.2
2018-03-03T02:25:48.104Z,-9.2
2018-03-03T02:26:08.531Z,-9.3
2018-03-03T02:26:28.953Z,-9.3
2018-03-03T02:26:49.340Z,-9.2
2018-03-03T02:27:09.748Z,-9.3
2018-03-03T02:27:30.065Z,-9.3
2018-03-03T02:27:50.492Z,-9.3
2018-03-03T02:28:10.861Z,-9.3
2018-03-03T02:28:31.303Z,-9.3
2018-03-03T02:28:51.659Z,-9.2
2018-03-03T02:29:11.933Z,-9.3
2018-03-03T02:29:32.197Z,-9.3
2018-03-03T02:29:52.564Z,-9.3
2018-03-03T02:30:12.929Z,-9.3
2018-03-03T02:30:33.314Z,-9.3
2018-03-03T02:30:53.685Z,-9.3
2018-03-03T02:31:14.108Z,-9.2
2018-03-03T02:31:34.628Z,-9.3
2018-03-03T02:31:54.934Z,-9.2
2018-03-03T02:32:15.318Z,-9.3
2018-03-03T02:32:35.732Z,-9.3
2018-03-03T02:32:56.170Z,-9.3
2018-03-03T02:33:16.725Z,-9.3
2018-03-03T02:33:37.222Z,-9.4
2018-03-03T02:33:57.605Z,-9.3
2018-03-03T02:34:18.002Z,-9.4
2018-03-03T02:34:38.382Z,-9.4
2018-03-03T02:34:58.702Z,-9.4
2018-03-03T02:35:19.122Z,-9.4
2018-03-03T02:35:39.415Z,-9.4
2018-03-03T02:35:59.849Z,-9.4
2018-03-03T02:36:20.266Z,-9.4
2018-03-03T02:36:40.643Z,-9.4
2018-03-03T02:37:01.089Z,-9.4
2018-03-03T02:37:21.483Z,-9.4
2018-03-03T02:37:41.882Z,-9.5
2018-03-03T02:38:02.171Z,-9.4
2018-03-03T02:38:22.467Z,-9.4
2018-03-03T02:38:42.952Z,-9.4
2018-03-03T02:39:03.363Z,-9.4
2018-03-03T02:39:23.725Z,-9.4
2018-03-03T02:39:44.199Z,-9.5
2018-03-03T02:40:04.567Z,-9.5
2018-03-03T02:40:26.277Z,-9.5
2018-03-03T02:40:46.620Z,-9.4
2018-03-03T02:41:06.939Z,-9.4
2018-03-03T02:41:27.222Z,-9.5
2018-03-03T02:41:47.588Z,-9.5
2018-03-03T02:42:07.969Z,-9.5
2018-03-03T02:42:28.534Z,-9.4
2018-03-03T02:42:48.814Z,-9.4
2018-03-03T02:43:09.210Z,-9.4
2018-03-03T02:43:29.784Z,-9.5
2018-03-03T02:43:50.110Z,-9.4
2018-03-03T02:44:10.582Z,-9.4
2018-03-03T02:44:30.872Z,-9.5
2018-03-03T02:44:51.137Z,-9.4
2018-03-03T02:45:11.464Z,-9.5
2018-03-03T02:45:31.889Z,-9.6
2018-03-03T02:45:52.277Z,-9.6
2018-03-03T02:46:12.621Z,-9.4
2018-03-03T02:46:32.998Z,-9.6
2018-03-03T02:46:53.428Z,-9.6
2018-03-03T02:47:14.442Z,-9.6
2018-03-03T02:47:34.914Z,-9.6
2018-03-03T02:47:55.150Z,-9.6
2018-03-03T02:48:15.512Z,-9.6
2018-03-03T02:48:35.810Z,-9.5
2018-03-03T02:48:56.086Z,-9.5
2018-03-03T02:49:16.440Z,-9.5
2018-03-03T02:49:36.908Z,-9.5
2018-03-03T02:49:57.255Z,-9.5
2018-03-03T02:50:17.625Z,-9.5
2018-03-03T02:50:37.932Z,-9.6
2018-03-03T02:50:58.358Z,-9.5
2018-03-03T02:51:18.642Z,-9.5
2018-03-03T02:51:38.984Z,-9.6
2018-03-03T02:51:59.297Z,-9.5
2018-03-03T02:52:19.742Z,-9.6
2018-03-03T02:52:40.062Z,-9.4
2018-03-03T02:53:00.330Z,-9.5
2018-03-03T02:53:20.705Z,-9.5
2018-03-03T02:53:40.989Z,-9.5
2018-03-03T02:54:01.454Z,-9.5
2018-03-03T02:54:21.946Z,-9.5
2018-03-03T02:54:42.299Z,-9.6
2018-03-03T02:55:02.750Z,-9.6
2018-03-03T02:55:23.234Z,-9.5
2018-03-03T02:55:43.588Z,-9.5
2018-03-03T02:56:03.881Z,-9.5
2018-03-03T02:56:24.223Z,-9.5
2018-03-03T02:56:44.565Z,-9.5
2018-03-03T02:57:04.871Z,-9.6
2018-03-03T02:57:25.293Z,-9.6
2018-03-03T02:57:45.666Z,-9.6
2018-03-03T02:58:06.005Z,-9.5
2018-03-03T02:58:26.348Z,-9.5
2018-03-03T02:58:46.748Z,-9.5
2018-03-03T02:59:07.075Z,-9.5
2018-03-03T02:59:27.380Z,-9.5
2018-03-03T02:59:47.853Z,-9.5
2018-03-03T03:00:08.184Z,-9.5
2018-03-03T03:00:28.520Z,-9.5
2018-03-03T03:00:48.831Z,-9.6
2018-03-03T03:01:09.220Z,-9.6
2018-03-03T03:01:29.657Z,-9.6
2018-03-03T03:01:50.123Z,-9.6
2018-03-03T03:02:10.518Z,-9.6
2018-03-03T03:02:30.848Z,-9.6
2018-03-03T03:02:51.303Z,-9.6
2018-03-03T03:03:11.716Z,-9.5
2018-03-03T03:03:32.107Z,-9.6
2018-03-03T03:03:52.506Z,-9.7
2018-03-03T03:04:12.936Z,-9.6
2018-03-03T03:04:33.298Z,-9.7
2018-03-03T03:04:53.666Z,-9.6
2018-03-03T03:05:14.132Z,-9.6
2018-03-03T03:05:34.526Z,-9.7
2018-03-03T03:05:54.947Z,-9.5
2018-03-03T03:06:15.405Z,-9.6
2018-03-03T03:06:35.881Z,-9.6
2018-03-03T03:06:56.345Z,-9.5
2018-03-03T03:07:16.860Z,-9.6
2018-03-03T03:07:37.230Z,-9.7
2018-03-03T03:07:57.555Z,-9.7
2018-03-03T03:08:17.887Z,-9.7
2018-03-03T03:08:38.390Z,-9.7
2018-03-03T03:08:58.649Z,-9.6
2018-03-03T03:09:18.914Z,-9.6
2018-03-03T03:09:39.312Z,-9.7
2018-03-03T03:09:59.790Z,-9.6
2018-03-03T03:10:20.074Z,-9.7
2018-03-03T03:10:40.521Z,-9.8
2018-03-03T03:11:00.854Z,-9.8
2018-03-03T03:11:21.288Z,-9.7
2018-03-03T03:11:41.562Z,-9.7
2018-03-03T03:12:01.924Z,-9.8
2018-03-03T03:12:22.492Z,-9.7
2018-03-03T03:12:42.796Z,-9.7
2018-03-03T03:13:03.241Z,-9.8
2018-03-03T03:13:23.563Z,-9.7
2018-03-03T03:13:43.909Z,-9.7
2018-03-03T03:14:04.238Z,-9.7
2018-03-03T03:14:24.541Z,-9.7
2018-03-03T03:14:44.879Z,-9.7
2018-03-03T03:15:05.274Z,-9.8
2018-03-03T03:15:25.643Z,-9.7
2018-03-03T03:15:45.981Z,-9.7
2018-03-03T03:16:06.449Z,-9.7
2018-03-03T03:16:26.815Z,-9.7
2018-03-03T03:16:47.098Z,-9.8
2018-03-03T03:17:07.406Z,-9.8
2018-03-03T03:17:27.809Z,-9.7
2018-03-03T03:17:48.123Z,-9.7
2018-03-03T03:18:08.518Z,-9.8
2018-03-03T03:18:28.898Z,-9.8
2018-03-03T03:18:49.185Z,-9.9
2018-03-03T03:19:09.543Z,-9.8
2018-03-03T03:19:29.911Z,-9.8
2018-03-03T03:19:50.273Z,-9.8
2018-03-03T03:20:10.607Z,-9.8
2018-03-03T03:20:31.064Z,-9.8
2018-03-03T03:20:51.529Z,-9.8
2018-03-03T03:21:11.830Z,-9.7
2018-03-03T03:21:32.368Z,-9.7
2018-03-03T03:21:52.766Z,-9.8
2018-03-03T03:22:13.069Z,-9.8
2018-03-03T03:22:33.401Z,-9.8
2018-03-03T03:22:53.728Z,-9.8
2018-03-03T03:23:14.097Z,-9.8
2018-03-03T03:23:34.525Z,-9.8
2018-03-03T03:23:54.879Z,-9.8
2018-03-03T03:24:15.329Z,-9.8
2018-03-03T03:24:35.666Z,-9.8
2018-03-03T03:24:55.992Z,-9.8
2018-03-03T03:25:16.246Z,-9.8
2018-03-03T03:25:36.537Z,-9.7
2018-03-03T03:25:57.004Z,-9.7
2018-03-03T03:26:17.344Z,-9.7
2018-03-03T03:26:37.868Z,-9.7
2018-03-03T03:26:58.165Z,-9.7
2018-03-03T03:27:18.539Z,-9.8
2018-03-03T03:27:38.888Z,-9.8
2018-03-03T03:27:59.370Z,-9.8
2018-03-03T03:28:19.765Z,-9.8
2018-03-03T03:28:40.095Z,-9.6
2018-03-03T03:29:00.443Z,-9.5
2018-03-03T03:29:20.828Z,-9.6
2018-03-03T03:29:41.149Z,-9.6
2018-03-03T03:30:01.545Z,-9.5
2018-03-03T03:30:21.970Z,-9.5
2018-03-03T03:30:42.395Z,-9.5
2018-03-03T03:31:02.690Z,-9.5
2018-03-03T03:31:23.064Z,-9.5
2018-03-03T03:31:43.537Z,-9.5
2018-03-03T03:32:03.916Z,-9.4
2018-03-03T03:32:24.404Z,-9.4
2018-03-03T03:32:44.972Z,-9.5
2018-03-03T03:33:05.322Z,-9.4
2018-03-03T03:33:25.686Z,-9.4
2018-03-03T03:33:46.001Z,-9.5
2018-03-03T03:34:06.580Z,-9.4
2018-03-03T03:34:26.817Z,-9.5
2018-03-03T03:34:47.182Z,-9.6
2018-03-03T03:35:07.489Z,-9.6
2018-03-03T03:35:27.764Z,-9.6
2018-03-03T03:35:48.078Z,-9.5
2018-03-03T03:36:08.406Z,-9.5
2018-03-03T03:36:28.782Z,-9.5
2018-03-03T03:36:49.020Z,-9.5
2018-03-03T03:37:09.248Z,-9.6
2018-03-03T03:37:29.541Z,-9.5
2018-03-03T03:37:49.878Z,-9.6
2018-03-03T03:38:10.157Z,-9.5
2018-03-03T03:38:30.462Z,-9.5
2018-03-03T03:38:50.951Z,-9.6
2018-03-03T03:39:11.287Z,-9.6
2018-03-03T03:39:31.693Z,-9.6
2018-03-03T03:39:52.153Z,-9.4
2018-03-03T03:40:12.455Z,-9.4
2018-03-03T03:40:32.841Z,-9.4
2018-03-03T03:40:53.342Z,-9.4
2018-03-03T03:41:13.763Z,-9.4
2018-03-03T03:41:34.129Z,-9.5
2018-03-03T03:41:54.508Z,-9.4
2018-03-03T03:42:14.925Z,-9.5
2018-03-03T03:42:35.474Z,-9.6
2018-03-03T03:42:55.892Z,-9.5
2018-03-03T03:43:16.265Z,-9.6
2018-03-03T03:43:36.684Z,-9.6
2018-03-03T03:43:57.110Z,-9.6
2018-03-03T03:44:17.469Z,-9.6
2018-03-03T03:44:37.812Z,-9.5
2018-03-03T03:44:58.211Z,-9.7
2018-03-03T03:45:18.555Z,-9.6
2018-03-03T03:45:38.974Z,-9.6
2018-03-03T03:45:59.316Z,-9.6
2018-03-03T03:46:19.675Z,-9.6
2018-03-03T03:46:40.015Z,-9.7
2018-03-03T03:47:00.499Z,-9.7
2018-03-03T03:47:20.871Z,-9.8
2018-03-03T03:47:41.190Z,-9.8
2018-03-03T03:48:01.540Z,-9.7
2018-03-03T03:48:21.911Z,-9.7
2018-03-03T03:48:42.275Z,-9.8
2018-03-03T03:49:02.697Z,-9.8
2018-03-03T03:49:23.068Z,-9.8
2018-03-03T03:49:43.363Z,-9.7
2018-03-03T03:50:03.778Z,-9.8
2018-03-03T03:50:24.154Z,-9.8
2018-03-03T03:50:44.654Z,-9.8
2018-03-03T03:51:05.086Z,-9.8
2018-03-03T03:51:25.375Z,-9.8
2018-03-03T03:51:45.753Z,-9.8
2018-03-03T03:52:06.091Z,-9.9
2018-03-03T03:52:26.388Z,-9.8
2018-03-03T03:52:46.775Z,-9.9
2018-03-03T03:53:07.076Z,-9.9
2018-03-03T03:53:27.364Z,-9.9
2018-03-03T03:53:47.692Z,-9.9
2018-03-03T03:54:08.224Z,-9.9
2018-03-03T03:54:28.605Z,-9.9
2018-03-03T03:54:48.996Z,-9.8
2018-03-03T03:55:09.641Z,-9.9
2018-03-03T03:55:30.162Z,-9.8
2018-03-03T03:55:50.499Z,-9.9
2018-03-03T03:56:10.920Z,-9.9
2018-03-03T03:56:31.354Z,-9.8
2018-03-03T03:56:51.678Z,-9.8
2018-03-03T03:57:12.069Z,-9.9
2018-03-03T03:57:32.539Z,-9.9
2018-03-03T03:57:52.906Z,-9.9
2018-03-03T03:58:13.229Z,-9.9
2018-03-03T03:58:33.742Z,-9.9
2018-03-03T03:58:54.020Z,-9.9
2018-03-03T03:59:14.525Z,-10
2018-03-03T03:59:34.889Z,-10
2018-03-03T03:59:55.298Z,-9.9
2018-03-03T04:00:15.574Z,-9.9
2018-03-03T04:00:35.882Z,-10
2018-03-03T04:00:56.193Z,-10
2018-03-03T04:01:16.556Z,-10
2018-03-03T04:01:36.903Z,-10
2018-03-03T04:01:57.270Z,-9.9
2018-03-03T04:02:17.609Z,-10
2018-03-03T04:02:38.005Z,-10
2018-03-03T04:02:58.281Z,-10.1
2018-03-03T04:03:18.557Z,-10
2018-03-03T04:03:38.827Z,-10
2018-03-03T04:03:59.135Z,-9.9
2018-03-03T04:04:19.527Z,-9.9
2018-03-03T04:04:39.905Z,-10
2018-03-03T04:05:00.199Z,-10
2018-03-03T04:05:20.469Z,-10
2018-03-03T04:05:40.789Z,-9.9
2018-03-03T04:06:01.221Z,-10
2018-03-03T04:06:21.583Z,-10
2018-03-03T04:06:41.978Z,-10
2018-03-03T04:07:02.357Z,-10
2018-03-03T04:07:22.821Z,-10
2018-03-03T04:07:43.220Z,-10
2018-03-03T04:08:03.717Z,-10.1
2018-03-03T04:08:24.155Z,-10
2018-03-03T04:08:44.575Z,-10.1
2018-03-03T04:09:05.017Z,-10
2018-03-03T04:09:25.335Z,-10
2018-03-03T04:09:45.706Z,-10
2018-03-03T04:10:06.041Z,-10
2018-03-03T04:10:26.446Z,-10
2018-03-03T04:10:46.728Z,-10
2018-03-03T04:11:07.107Z,-10
2018-03-03T04:11:27.494Z,-10
2018-03-03T04:11:47.815Z,-10
2018-03-03T04:12:08.212Z,-10.1
2018-03-03T04:12:28.637Z,-10.1
2018-03-03T04:12:48.992Z,-10.1
2018-03-03T04:13:09.365Z,-10.1
2018-03-03T04:13:29.748Z,-10.1
2018-03-03T04:13:50.061Z,-10.1
2018-03-03T04:14:10.471Z,-10.1
2018-03-03T04:14:30.529Z,-10.2
2018-03-03T04:14:50.891Z,-10.1
2018-03-03T04:15:11.303Z,-10.1
2018-03-03T04:15:31.758Z,-10.1
2018-03-03T04:15:52.095Z,-10.1
2018-03-03T04:16:12.478Z,-10.1
2018-03-03T04:16:33.089Z,-10.1
2018-03-03T04:16:53.397Z,-10.1
2018-03-03T04:17:13.924Z,-10.1
2018-03-03T04:17:34.287Z,-10.1
2018-03-03T04:17:54.671Z,-10.1
2018-03-03T04:18:14.957Z,-10.1
2018-03-03T04:18:35.372Z,-10.2
2018-03-03T04:18:55.777Z,-10.1
2018-03-03T04:19:16.174Z,-10.2
2018-03-03T04:19:36.487Z,-10.1
2018-03-03T04:19:56.855Z,-10
2018-03-03T04:20:17.421Z,-10.1
2018-03-03T04:20:37.891Z,-10.1
2018-03-03T04:20:58.229Z,-10
2018-03-03T04:21:18.607Z,-10
2018-03-03T04:21:38.971Z,-10
2018-03-03T04:21:59.475Z,-9.9
2018-03-03T04:22:19.874Z,-10
2018-03-03T04:22:40.272Z,-9.9
2018-03-03T04:23:00.884Z,-9.9
2018-03-03T04:23:21.278Z,-10
2018-03-03T04:23:41.740Z,-10
2018-03-03T04:24:02.082Z,-9.9
2018-03-03T04:24:22.538Z,-9.9
2018-03-03T04:24:42.855Z,-9.9
2018-03-03T04:25:03.316Z,-9.9
2018-03-03T04:25:23.745Z,-9.9
2018-03-03T04:25:44.084Z,-9.9
2018-03-03T04:26:04.135Z,-9.9
2018-03-03T04:26:24.409Z,-10
2018-03-03T04:26:44.835Z,-10
2018-03-03T04:27:05.206Z,-10
2018-03-03T04:27:25.629Z,-10
2018-03-03T04:27:45.963Z,-10
2018-03-03T04:28:06.456Z,-10
2018-03-03T04:28:26.819Z,-10
2018-03-03T04:28:47.159Z,-10
2018-03-03T04:29:07.591Z,-10
2018-03-03T04:29:27.975Z,-10
2018-03-03T04:29:48.411Z,-10
2018-03-03T04:30:08.767Z,-10
2018-03-03T04:30:29.423Z,-9.9
2018-03-03T04:30:49.776Z,-9.9
2018-03-03T04:31:10.108Z,-9.9
2018-03-03T04:31:30.534Z,-9.9
2018-03-03T04:31:50.885Z,-9.9
2018-03-03T04:32:11.231Z,-10